Weather reports worldwide

Advertisment
Sheffield, United Kingdom (99107): temperature & dewpoint: 15.10.2017 06:00:00 - 21.10.2017 06:00:00 (BST)Sheffield, United Kingdom (99107): sunshine duration: 15.10.2017 06:00:00 - 21.10.2017 06:00:00 (BST)Sheffield, United Kingdom (99107): precipitation: 15.10.2017 06:00:00 - 21.10.2017 06:00:00 (BST)
Date & Time tt [°C] td [°C] sd [min] rr [mm]
21.10.2017 06:00:00 - - - -
21.10.2017 05:00:00 - - - -
21.10.2017 04:00:00 - - - -
21.10.2017 03:00:00 - - - -
21.10.2017 02:00:00 - - - -
21.10.2017 01:00:00 - - - -
21.10.2017 00:00:00 - - - -
20.10.2017 23:00:00 - - - -
20.10.2017 22:00:00 - - - -
20.10.2017 21:00:00 - - - -
20.10.2017 20:00:00 10,3 7,1 0 0,0
20.10.2017 19:00:00 10,9 7,3 0 0,0
20.10.2017 18:00:00 11,8 8,0 0 0,0
20.10.2017 17:00:00 12,6 9,6 0 0,0
20.10.2017 16:00:00 13,0 9,4 6 0,0
20.10.2017 15:00:00 12,8 10,2 0 0,0
20.10.2017 14:00:00 14,4 11,1 24 0,0
20.10.2017 13:00:00 13,7 11,8 6 0,0
20.10.2017 12:00:00 14,7 12,0 0 0,0
20.10.2017 11:00:00 13,3 11,8 0 0,0
20.10.2017 10:00:00 12,4 10,9 0 0,0
20.10.2017 09:00:00 11,7 10,9 30 0,0
20.10.2017 08:00:00 10,3 10,0 0 0,0
20.10.2017 07:00:00 11,1 10,8 0 0,0
20.10.2017 06:00:00 11,0 10,6 0 0,2
20.10.2017 05:00:00 11,2 10,6 0 0,4
20.10.2017 04:00:00 11,6 10,8 0 0,2
20.10.2017 03:00:00 12,0 11,0 0 0,0
20.10.2017 02:00:00 12,9 12,0 0 0,2
20.10.2017 01:00:00 13,2 12,5 - 0,4
20.10.2017 00:00:00 13,3 12,5 0 0,0
19.10.2017 23:00:00 13,1 12,3 0 0,0
19.10.2017 22:00:00 12,8 12,1 0 0,0
19.10.2017 21:00:00 12,8 12,2 0 0,0
19.10.2017 20:00:00 12,9 12,2 0 0,2
19.10.2017 19:00:00 13,6 12,8 0 4,8
19.10.2017 18:00:00 14,4 14,4 0 0,2
19.10.2017 17:00:00 13,7 13,7 0 0,2
19.10.2017 16:00:00 13,2 13,1 0 0,0
19.10.2017 15:00:00 12,4 12,2 0 2,0
19.10.2017 14:00:00 12,3 11,9 0 2,4
19.10.2017 13:00:00 12,3 11,8 0 3,4
19.10.2017 12:00:00 12,2 11,5 0 0,6
19.10.2017 11:00:00 12,0 11,2 0 0,0
19.10.2017 10:00:00 12,0 11,1 0 0,0
19.10.2017 09:00:00 11,6 10,9 0 0,0
19.10.2017 08:00:00 11,3 11,1 0 0,0
19.10.2017 07:00:00 11,5 11,3 0 0,0
19.10.2017 06:00:00 11,5 11,4 0 0,0
19.10.2017 05:00:00 11,4 11,3 0 0,0
19.10.2017 04:00:00 11,3 11,2 0 0,0
19.10.2017 03:00:00 11,3 11,2 0 0,0
19.10.2017 02:00:00 11,2 11,1 0 0,0
19.10.2017 01:00:00 11,0 10,9 - 0,0
19.10.2017 00:00:00 10,8 10,7 0 0,2
18.10.2017 23:00:00 10,8 10,6 0 0,4
18.10.2017 22:00:00 10,7 10,4 0 0,4
18.10.2017 21:00:00 10,7 10,3 0 0,0
18.10.2017 20:00:00 10,8 10,0 0 0,0
18.10.2017 19:00:00 11,3 9,0 0 0,0
18.10.2017 18:00:00 11,6 8,5 0 0,0
18.10.2017 17:00:00 11,8 7,9 0 0,0
18.10.2017 16:00:00 12,1 7,8 0 0,0
18.10.2017 15:00:00 12,2 6,9 0 0,0
18.10.2017 14:00:00 12,2 6,8 0 0,0
18.10.2017 13:00:00 12,2 6,9 0 0,0
18.10.2017 12:00:00 10,8 6,8 0 0,0
18.10.2017 11:00:00 10,1 6,9 0 0,0
18.10.2017 10:00:00 9,3 7,1 60 0,0
18.10.2017 09:00:00 6,8 6,3 18 0,0
18.10.2017 08:00:00 6,0 5,3 0 0,0
18.10.2017 07:00:00 6,5 5,7 0 0,0
18.10.2017 06:00:00 6,7 5,6 0 0,0
18.10.2017 05:00:00 7,9 6,1 0 0,0
18.10.2017 04:00:00 9,3 6,8 0 0,0
18.10.2017 03:00:00 9,5 6,5 0 0,0
18.10.2017 02:00:00 9,5 6,1 0 0,0
18.10.2017 01:00:00 10,0 5,8 - 0,0
18.10.2017 00:00:00 10,2 6,1 0 0,0
17.10.2017 23:00:00 10,1 5,9 0 0,0
17.10.2017 22:00:00 10,2 5,7 0 0,0
17.10.2017 21:00:00 11,1 5,6 0 0,0
17.10.2017 20:00:00 10,8 5,7 0 0,0
17.10.2017 19:00:00 11,3 5,5 0 0,0
17.10.2017 18:00:00 12,3 5,5 0 0,0
17.10.2017 17:00:00 13,6 5,6 30 0,0
17.10.2017 16:00:00 14,2 5,5 42 0,0
17.10.2017 15:00:00 15,0 5,2 60 0,0
17.10.2017 14:00:00 14,5 5,8 54 0,0
17.10.2017 13:00:00 14,0 5,9 54 0,0
17.10.2017 12:00:00 14,7 6,5 60 0,0
17.10.2017 11:00:00 13,8 6,8 60 0,0
17.10.2017 10:00:00 12,7 7,2 60 0,0
17.10.2017 09:00:00 11,7 7,0 54 0,0
17.10.2017 08:00:00 11,3 7,0 0 0,0
17.10.2017 07:00:00 11,5 6,8 0 0,0
17.10.2017 06:00:00 11,8 6,6 0 0,0
17.10.2017 05:00:00 12,3 6,6 0 0,0
17.10.2017 04:00:00 12,4 6,5 0 0,0
17.10.2017 03:00:00 12,8 6,5 0 0,0
17.10.2017 02:00:00 13,4 6,2 0 0,0
17.10.2017 01:00:00 13,6 6,1 - 0,0
17.10.2017 00:00:00 14,0 6,2 0 0,0
16.10.2017 23:00:00 14,1 6,4 0 0,0
16.10.2017 22:00:00 14,1 7,1 0 0,0
16.10.2017 21:00:00 14,7 6,6 0 0,0
16.10.2017 20:00:00 15,2 6,4 0 0,0
16.10.2017 19:00:00 15,8 6,8 0 0,0
16.10.2017 18:00:00 16,5 7,2 18 0,0
16.10.2017 17:00:00 18,2 9,3 60 0,0
16.10.2017 16:00:00 19,1 11,2 60 0,0
16.10.2017 15:00:00 19,0 13,8 6 0,0
16.10.2017 14:00:00 19,0 14,7 0 0,0
16.10.2017 13:00:00 18,2 15,5 0 0,0
16.10.2017 12:00:00 17,3 15,2 0 0,0
16.10.2017 11:00:00 16,2 15,0 0 0,0
16.10.2017 10:00:00 15,0 14,4 0 0,0
16.10.2017 09:00:00 14,2 13,8 0 0,0
16.10.2017 08:00:00 13,8 13,2 0 0,0
16.10.2017 07:00:00 14,0 12,9 0 0,0
16.10.2017 06:00:00 13,6 12,4 0 0,0
16.10.2017 05:00:00 13,7 12,3 0 0,0
16.10.2017 04:00:00 13,6 12,5 0 0,0
16.10.2017 03:00:00 13,5 11,7 0 0,0
16.10.2017 02:00:00 13,7 11,6 0 0,0
16.10.2017 01:00:00 14,0 11,7 - 0,0
16.10.2017 00:00:00 14,0 11,7 0 0,0
15.10.2017 23:00:00 14,3 11,4 0 0,0
15.10.2017 22:00:00 14,7 11,4 0 0,0
15.10.2017 21:00:00 15,3 11,8 0 0,0
15.10.2017 20:00:00 15,5 12,1 0 0,0
15.10.2017 19:00:00 15,9 12,4 0 0,0
15.10.2017 18:00:00 16,5 11,8 24 0,0
15.10.2017 17:00:00 17,2 11,9 42 0,0
15.10.2017 16:00:00 17,8 12,3 30 0,0
15.10.2017 15:00:00 18,0 13,0 36 0,0
15.10.2017 14:00:00 18,0 12,7 42 0,0
15.10.2017 13:00:00 16,8 12,6 0 0,0
15.10.2017 12:00:00 16,3 12,6 0 0,0
15.10.2017 11:00:00 15,7 13,4 0 0,0
15.10.2017 10:00:00 14,6 13,0 0 0,0
15.10.2017 09:00:00 13,9 12,7 0 0,0
15.10.2017 08:00:00 13,7 12,4 0 0,0
15.10.2017 07:00:00 13,6 12,2 0 0,0
15.10.2017 06:00:00 13,5 11,9 0 0,0

tt = temperature
td = dewpoint
sd = sunshine duration
rr = precipitation

Next stations